Time;durP1;ratioP1;P1;durP2;ratioP2;P2;SDS_P1;SDS_P2;PMS_P1;PMS_P2;Temp;Humidity;BMP_temperature;BMP_pressure;BME280_temperature;BME280_humidity;BME280_pressure;Samples;Min_cycle;Max_cycle;Signal;HPM_P1;HPM_P2
2022/06/23 00:00:59;;;;;;;;;;;;;;;21.35;50.69;100419.56;7403933;19;1398;-60
2022/06/23 00:03:30;;;;;;;;;;;;;;;21.29;50.96;100415.66;7404447;19;1418;-56
2022/06/23 00:06:02;;;;;;;;;;;;;;;21.21;50.98;100424.50;7403854;19;1400;-60
2022/06/23 00:08:31;;;;;;;;;;;;;;;21.18;51.02;100414.06;7404588;19;1619;-60
2022/06/23 00:11:00;;;;;;;;;;;;;;;21.18;51.02;100416.75;7405927;19;1308;-60
2022/06/23 00:13:34;;;;;;;;;;;;;;;21.23;50.99;100424.34;7404975;19;1604;-60
2022/06/23 00:16:03;;;;;;;;;;;;;;;21.26;50.88;100429.41;7404390;19;1702;-55
2022/06/23 00:18:34;;;;;;;;;;;;;;;21.15;51.28;100456.53;7402465;19;1909;-60
2022/06/23 00:21:07;;;;;;;;;;;;;;;21.17;51.22;100433.88;7402986;19;1325;-56
2022/06/23 00:23:38;;;;;;;;;;;;;;;21.25;51.18;100446.56;7403228;19;1372;-60
2022/06/23 00:26:10;;;;;;;;;;;;;;;21.22;51.26;100428.03;7404068;19;1382;-60
2022/06/23 00:28:43;;;;;;;;;;;;;;;21.21;51.04;100453.25;7404254;19;1552;-59
2022/06/23 00:31:36;;;;;;;;;;;;;;;21.00;51.35;100437.47;7404952;19;1564;-56
2022/06/23 00:34:05;;;;;;;;;;;;;;;21.22;51.19;100441.47;7403940;19;1711;-60
2022/06/23 00:36:38;;;;;;;;;;;;;;;21.16;51.15;100444.78;7402214;19;1837;-60
2022/06/23 00:39:08;;;;;;;;;;;;;;;21.17;50.95;100443.78;7403441;19;1530;-59
2022/06/23 00:41:39;;;;;;;;;;;;;;;21.11;51.07;100433.66;7404657;19;1332;-56
2022/06/23 00:44:10;;;;;;;;;;;;;;;21.13;51.14;100439.72;7404374;19;1351;-60
2022/06/23 00:46:43;;;;;;;;;;;;;;;21.06;50.97;100442.19;7404070;19;1744;-55
2022/06/23 00:49:16;;;;;;;;;;;;;;;20.86;51.39;100441.56;7403438;19;1464;-59
2022/06/23 00:51:49;;;;;;;;;;;;;;;20.86;51.23;100453.13;7403719;19;1888;-60
2022/06/23 00:54:20;;;;;;;;;;;;;;;20.81;51.05;100438.47;7403452;19;1241;-60
2022/06/23 00:56:51;;;;;;;;;;;;;;;20.81;51.10;100443.84;7402458;19;1863;-60
2022/06/23 00:59:21;;;;;;;;;;;;;;;20.78;51.00;100439.63;7403026;19;1489;-56
2022/06/23 01:01:52;;;;;;;;;;;;;;;20.91;50.75;100458.06;7401728;19;1684;-56
2022/06/23 01:04:25;;;;;;;;;;;;;;;20.98;50.47;100440.28;7404550;19;1284;-56
2022/06/23 01:07:00;;;;;;;;;;;;;;;20.86;50.92;100434.31;7403454;19;1498;-59
2022/06/23 01:09:31;;;;;;;;;;;;;;;20.81;51.19;100433.09;7403434;19;1314;-60
2022/06/23 01:12:03;;;;;;;;;;;;;;;20.99;51.07;100441.13;7407429;19;1662;-56
2022/06/23 01:14:34;;;;;;;;;;;;;;;20.96;50.68;100450.34;7411035;19;1619;-56
2022/06/23 01:17:09;;;;;;;;;;;;;;;20.99;50.87;100430.38;7409465;19;1850;-60
2022/06/23 01:19:49;;;;;;;;;;;;;;;20.79;51.27;100440.47;7410859;19;1508;-56
2022/06/23 01:22:32;;;;;;;;;;;;;;;20.89;50.98;100424.25;7410211;19;1415;-55
2022/06/23 01:25:04;;;;;;;;;;;;;;;20.87;50.51;100440.56;7409912;19;1559;-56
2022/06/23 01:27:51;;;;;;;;;;;;;;;20.93;50.70;100428.31;7409166;19;1539;-60
2022/06/23 01:30:22;;;;;;;;;;;;;;;20.88;50.57;100431.50;7408663;19;1528;-60
2022/06/23 01:32:55;;;;;;;;;;;;;;;20.83;50.36;100417.66;7409482;19;1280;-60
2022/06/23 01:35:28;;;;;;;;;;;;;;;20.76;50.75;100432.75;7410067;19;1844;-55
2022/06/23 01:37:59;;;;;;;;;;;;;;;20.80;50.22;100416.13;7408145;19;1857;-55
2022/06/23 01:40:31;;;;;;;;;;;;;;;20.88;50.54;100438.72;7408635;19;1534;-55
2022/06/23 01:43:05;;;;;;;;;;;;;;;20.86;50.74;100425.44;7408775;19;1357;-56
2022/06/23 01:45:37;;;;;;;;;;;;;;;20.88;50.50;100438.72;7408244;19;1561;-60
2022/06/23 01:48:11;;;;;;;;;;;;;;;20.82;50.59;100432.13;7408410;19;1552;-56
2022/06/23 01:50:42;;;;;;;;;;;;;;;20.86;50.80;100417.34;7408888;19;1337;-60
2022/06/23 01:53:16;;;;;;;;;;;;;;;20.78;50.48;100417.31;7408609;19;1766;-60
2022/06/23 01:56:03;;;;;;;;;;;;;;;20.71;50.91;100429.66;7408221;19;1606;-60
2022/06/23 01:58:38;;;;;;;;;;;;;;;20.74;50.93;100422.13;7406654;19;1863;-61
2022/06/23 02:01:07;;;;;;;;;;;;;;;20.77;50.42;100418.28;7399096;19;1500;-60
2022/06/23 02:03:41;;;;;;;;;;;;;;;20.65;50.62;100423.06;7406811;19;1345;-60
2022/06/23 02:06:27;;;;;;;;;;;;;;;20.74;50.67;100406.00;7407035;19;1279;-55
2022/06/23 02:08:59;;;;;;;;;;;;;;;20.69;50.71;100419.09;7406692;19;1614;-60
2022/06/23 02:11:31;;;;;;;;;;;;;;;20.69;50.85;100424.47;7409401;19;1047;-56
2022/06/23 02:14:04;;;;;;;;;;;;;;;20.62;50.86;100428.75;7409569;19;938;-56
2022/06/23 02:16:35;;;;;;;;;;;;;;;20.44;51.11;100452.91;7407727;19;1678;-55
2022/06/23 02:19:07;;;;;;;;;;;;;;;20.66;50.80;100439.03;7404464;19;1837;-60
2022/06/23 02:21:39;;;;;;;;;;;;;;;20.65;51.04;100423.06;7406496;19;1353;-55
2022/06/23 02:24:10;;;;;;;;;;;;;;;20.55;50.93;100436.56;7408040;19;1540;-55
2022/06/23 02:26:40;;;;;;;;;;;;;;;20.39;51.54;100434.56;7408215;19;1392;-55
2022/06/23 02:29:16;;;;;;;;;;;;;;;20.63;50.95;100433.13;7408543;19;1477;-56
2022/06/23 02:31:49;;;;;;;;;;;;;;;20.63;50.97;100425.06;7406833;19;1311;-59
2022/06/23 02:34:23;;;;;;;;;;;;;;;20.46;50.96;100427.56;7406973;19;1269;-56
2022/06/23 02:37:08;;;;;;;;;;;;;;;20.44;51.03;100428.72;7407173;19;1678;-60
2022/06/23 02:39:40;;;;;;;;;;;;;;;20.52;50.43;100415.38;7407344;19;1501;-60
2022/06/23 02:42:19;;;;;;;;;;;;;;;20.56;50.50;100434.72;7405583;19;1772;-56
2022/06/23 02:45:04;;;;;;;;;;;;;;;20.39;50.58;100422.97;7407651;19;1435;-60
2022/06/23 02:47:39;;;;;;;;;;;;;;;20.48;50.57;100419.34;7407577;19;1333;-60
2022/06/23 02:50:18;;;;;;;;;;;;;;;20.62;50.44;100424.22;7406819;19;1496;-56
2022/06/23 02:53:02;;;;;;;;;;;;;;;20.51;50.61;100421.72;7406290;19;1505;-55
2022/06/23 02:55:42;;;;;;;;;;;;;;;20.45;50.92;100420.53;7406997;19;1355;-56
2022/06/23 02:58:13;;;;;;;;;;;;;;;20.46;51.08;100429.41;7405458;19;1864;-55
2022/06/23 03:00:47;;;;;;;;;;;;;;;20.50;51.04;100429.97;7405489;19;1536;-55
2022/06/23 03:03:19;;;;;;;;;;;;;;;20.45;51.02;100438.44;7406515;19;1502;-56
2022/06/23 03:05:51;;;;;;;;;;;;;;;20.53;50.79;100437.69;7405382;19;1567;-60
2022/06/23 03:08:29;;;;;;;;;;;;;;;20.56;50.62;100446.28;7405444;19;1572;-55
2022/06/23 03:10:59;;;;;;;;;;;;;;;20.44;50.67;100437.63;7405927;19;1602;-56
2022/06/23 03:13:35;;;;;;;;;;;;;;;20.26;51.44;100437.59;7406045;19;1631;-56
2022/06/23 03:16:11;;;;;;;;;;;;;;;20.27;51.22;100425.88;7405595;19;1396;-60
2022/06/23 03:18:43;;;;;;;;;;;;;;;20.39;50.93;100436.38;7405156;19;1865;-60
2022/06/23 03:21:18;;;;;;;;;;;;;;;20.61;51.27;100454.78;7405302;19;1422;-55
2022/06/23 03:23:50;;;;;;;;;;;;;;;20.85;52.00;100442.56;7405556;19;1529;-54
2022/06/23 03:26:22;;;;;;;;;;;;;;;20.81;51.21;100449.22;7405572;19;1329;-56
2022/06/23 03:28:54;;;;;;;;;;;;;;;20.62;52.10;100463.69;7403581;19;1675;-56
2022/06/23 03:31:30;;;;;;;;;;;;;;;20.59;51.52;100453.22;7400246;19;1435;-59
2022/06/23 03:34:02;;;;;;;;;;;;;;;20.50;52.00;100449.59;7401388;19;1570;-60
2022/06/23 03:36:33;;;;;;;;;;;;;;;20.79;51.97;100451.22;7400431;19;1622;-60
2022/06/23 03:41:51;;;;;;;;;;;;;;;20.83;51.13;100471.41;7404006;19;1298;-55
2022/06/23 03:44:24;;;;;;;;;;;;;;;20.76;51.52;100467.66;7401838;19;1544;-60
2022/06/23 03:46:58;;;;;;;;;;;;;;;20.70;51.12;100468.28;7404998;19;1388;-56
2022/06/23 03:49:34;;;;;;;;;;;;;;;20.70;51.25;100468.28;7405585;19;1496;-55
2022/06/23 03:52:04;;;;;;;;;;;;;;;20.93;51.42;100469.50;7405646;19;1568;-56
2022/06/23 03:54:46;;;;;;;;;;;;;;;20.89;51.37;100481.56;7405409;19;1428;-56
2022/06/23 03:57:19;;;;;;;;;;;;;;;20.86;51.77;100485.38;7404408;19;1666;-60
2022/06/23 04:00:01;;;;;;;;;;;;;;;20.93;51.45;100472.19;7402454;19;1854;-55
2022/06/23 04:02:38;;;;;;;;;;;;;;;20.71;51.34;100476.19;7402077;19;1325;-60
2022/06/23 04:05:13;;;;;;;;;;;;;;;20.89;51.83;100496.81;7404542;19;1431;-55
2022/06/23 04:07:47;;;;;;;;;;;;;;;20.91;51.32;100487.63;7402133;19;1325;-55
2022/06/23 04:10:17;;;;;;;;;;;;;;;21.00;51.17;100470.56;7403113;19;1091;-56
2022/06/23 04:12:48;;;;;;;;;;;;;;;21.07;50.82;100470.78;7402588;19;1513;-60
2022/06/23 04:15:19;;;;;;;;;;;;;;;21.14;51.08;100487.97;7402914;19;1308;-55
2022/06/23 04:17:54;;;;;;;;;;;;;;;21.17;50.92;100476.91;7404845;19;1851;-60
2022/06/23 04:20:24;;;;;;;;;;;;;;;21.13;50.91;100475.53;7403555;19;1858;-59
2022/06/23 04:22:54;;;;;;;;;;;;;;;20.87;51.75;100480.88;7404878;19;1529;-60
2022/06/23 04:25:25;;;;;;;;;;;;;;;21.08;51.30;100487.75;7403884;19;1257;-56
2022/06/23 04:27:54;;;;;;;;;;;;;;;20.85;51.76;100485.56;7404215;19;1303;-60
2022/06/23 04:30:32;;;;;;;;;;;;;;;20.90;51.69;100485.94;7403651;19;1623;-55
2022/06/23 04:33:05;;;;;;;;;;;;;;;20.89;51.97;100491.44;7403856;19;1349;-60
2022/06/23 04:35:36;;;;;;;;;;;;;;;20.79;52.30;100483.47;7404281;19;1435;-56
2022/06/23 04:38:08;;;;;;;;;;;;;;;21.00;51.83;100485.84;7402501;19;1858;-60
2022/06/23 04:40:40;;;;;;;;;;;;;;;20.94;51.85;100498.06;7405152;19;1062;-55
2022/06/23 04:43:16;;;;;;;;;;;;;;;20.68;52.54;100510.59;7403932;19;1473;-56
2022/06/23 04:45:52;;;;;;;;;;;;;;;20.89;52.12;100505.75;7407452;19;1578;-60
2022/06/23 04:48:28;;;;;;;;;;;;;;;21.18;51.56;100500.09;7407600;19;1416;-56
2022/06/23 04:50:59;;;;;;;;;;;;;;;21.26;51.25;100502.00;7411075;19;1740;-60
2022/06/23 04:53:33;;;;;;;;;;;;;;;21.36;51.71;100504.59;7411188;19;1367;-60
2022/06/23 04:56:05;;;;;;;;;;;;;;;21.55;51.05;100499.06;7410914;19;1407;-56
2022/06/23 04:58:36;;;;;;;;;;;;;;;21.60;50.94;100507.47;7408987;19;1854;-60
2022/06/23 05:01:05;;;;;;;;;;;;;;;21.65;50.90;100507.03;7408009;19;1640;-56
2022/06/23 05:03:38;;;;;;;;;;;;;;;21.56;51.16;100513.34;7410054;19;1683;-60
2022/06/23 05:06:09;;;;;;;;;;;;;;;21.67;51.08;100528.41;7410714;19;1439;-56
2022/06/23 05:08:41;;;;;;;;;;;;;;;21.78;50.66;100526.25;7409041;19;1490;-55
2022/06/23 05:11:12;;;;;;;;;;;;;;;21.86;51.18;100509.31;7410550;19;1757;-56
2022/06/23 05:13:44;;;;;;;;;;;;;;;21.77;51.51;100521.03;7409160;19;1627;-55
2022/06/23 05:16:13;;;;;;;;;;;;;;;21.68;51.90;100516.63;7408756;19;1313;-60
2022/06/23 05:18:47;;;;;;;;;;;;;;;21.90;51.16;100520.59;7409701;19;1855;-59
2022/06/23 05:21:19;;;;;;;;;;;;;;;21.83;51.58;100531.19;7410153;19;1329;-56
2022/06/23 05:23:53;;;;;;;;;;;;;;;22.02;50.84;100538.16;7410198;19;1638;-60
2022/06/23 05:26:26;;;;;;;;;;;;;;;22.12;50.66;100535.34;7409979;19;1686;-60
2022/06/23 05:28:57;;;;;;;;;;;;;;;22.22;50.72;100536.91;7409903;19;1593;-60
2022/06/23 05:31:30;;;;;;;;;;;;;;;22.27;51.23;100538.31;7409460;19;1511;-61
2022/06/23 05:34:04;;;;;;;;;;;;;;;22.34;51.01;100533.94;7408994;19;1395;-60
2022/06/23 05:36:31;;;;;;;;;;;;;;;;;;7408164;19;1435;-56
2022/06/23 05:39:03;;;;;;;;;;;;;;;22.36;51.03;100546.25;7407579;19;1877;-60
2022/06/23 05:41:35;;;;;;;;;;;;;;;22.41;51.13;100535.81;7407476;19;1402;-60
2022/06/23 05:44:06;;;;;;;;;;;;;;;22.43;51.21;100543.75;7408310;19;1536;-59
2022/06/23 05:46:36;;;;;;;;;;;;;;;22.34;51.11;100542.88;7409744;19;1702;-57
2022/06/23 05:49:13;;;;;;;;;;;;;;;22.23;50.18;100549.38;7409234;19;1481;-56
2022/06/23 05:51:47;;;;;;;;;;;;;;;22.23;50.86;100548.53;7408718;19;1790;-60
2022/06/23 05:54:18;;;;;;;;;;;;;;;22.39;50.91;100563.94;7408095;19;1407;-60
2022/06/23 05:56:50;;;;;;;;;;;;;;;22.47;50.68;100569.34;7405011;19;1644;-60
2022/06/23 05:59:21;;;;;;;;;;;;;;;22.52;50.99;100585.03;7407964;19;1862;-60
2022/06/23 06:01:54;;;;;;;;;;;;;;;22.58;50.39;100576.28;7407736;19;1623;-56
2022/06/23 06:04:27;;;;;;;;;;;;;;;22.62;49.72;100588.41;7408886;19;1300;-56
2022/06/23 06:06:55;;;;;;;;;;;;;;;22.60;49.59;100603.91;7408050;19;1697;-60
2022/06/23 06:09:40;;;;;;;;;;;;;;;22.63;49.99;100590.97;7405077;19;1427;-56
2022/06/23 06:12:10;;;;;;;;;;;;;;;22.91;48.69;100579.06;7407920;19;1296;-56
2022/06/23 06:14:42;;;;;;;;;;;;;;;22.87;49.03;100583.94;7405302;19;1345;-55
2022/06/23 06:17:17;;;;;;;;;;;;;;;22.82;48.88;100587.16;7407009;19;1533;-56
2022/06/23 06:19:49;;;;;;;;;;;;;;;22.88;48.95;100596.44;7406033;19;1876;-56
2022/06/23 06:22:25;;;;;;;;;;;;;;;22.94;48.41;100576.91;7409743;19;1023;-56
2022/06/23 06:24:55;;;;;;;;;;;;;;;22.88;48.74;100564.09;7409097;19;1300;-56
2022/06/23 06:27:24;;;;;;;;;;;;;;;22.80;47.81;100580.22;7406998;19;1766;-56
2022/06/23 06:29:53;;;;;;;;;;;;;;;22.75;48.45;100582.56;7404814;19;1375;-56
2022/06/23 06:32:33;;;;;;;;;;;;;;;22.71;47.95;100589.31;7404328;19;1392;-60
2022/06/23 06:35:10;;;;;;;;;;;;;;;22.80;46.64;100569.44;7403798;19;1308;-56
2022/06/23 06:37:49;;;;;;;;;;;;;;;22.86;48.18;100581.41;7405404;19;1467;-60
2022/06/23 06:40:18;;;;;;;;;;;;;;;22.83;47.84;100566.41;7403921;19;1874;-56
2022/06/23 06:42:48;;;;;;;;;;;;;;;23.10;45.72;100567.16;7405120;19;1379;-56
2022/06/23 06:45:19;;;;;;;;;;;;;;;22.92;46.67;100570.81;7404459;19;1548;-60
2022/06/23 06:47:48;;;;;;;;;;;;;;;22.71;47.19;100573.13;7404139;19;1446;-56
2022/06/23 06:50:28;;;;;;;;;;;;;;;22.72;46.68;100558.63;7404737;19;1307;-60
2022/06/23 06:52:57;;;;;;;;;;;;;;;22.63;47.51;100577.47;7403945;19;1330;-55
2022/06/23 06:55:28;;;;;;;;;;;;;;;22.60;47.29;100567.03;7406625;19;1584;-60
2022/06/23 06:57:59;;;;;;;;;;;;;;;22.59;47.38;100562.66;7404912;19;1356;-56
2022/06/23 07:00:30;;;;;;;;;;;;;;;22.56;48.18;100564.81;7403444;19;1871;-56
2022/06/23 07:03:01;;;;;;;;;;;;;;;22.45;48.45;100557.91;7403575;19;1710;-60
2022/06/23 07:05:34;;;;;;;;;;;;;;;22.34;47.71;100574.34;7402864;19;1757;-60
2022/06/23 07:08:07;;;;;;;;;;;;;;;22.57;47.68;100561.97;7402697;19;1372;-59
2022/06/23 07:10:38;;;;;;;;;;;;;;;22.60;47.83;100545.50;7405113;19;1453;-60
2022/06/23 07:13:10;;;;;;;;;;;;;;;22.63;48.65;100542.44;7403674;19;1483;-56
2022/06/23 07:15:40;;;;;;;;;;;;;;;22.74;49.54;100533.22;7404505;19;1374;-56
2022/06/23 07:18:14;;;;;;;;;;;;;;;22.76;50.46;100533.91;7402730;19;1694;-55
2022/06/23 07:20:50;;;;;;;;;;;;;;;22.76;50.72;100531.19;7402354;19;1853;-64
2022/06/23 07:23:21;;;;;;;;;;;;;;;22.86;51.05;100522.09;7404384;19;1575;-57
2022/06/23 07:25:51;;;;;;;;;;;;;;;22.82;50.99;100506.28;7404885;19;1418;-59
2022/06/23 07:28:23;;;;;;;;;;;;;;;22.80;51.11;100492.13;7405315;19;1486;-60
2022/06/23 07:30:54;;;;;;;;;;;;;;;22.82;51.51;100494.66;7405220;19;1606;-55
2022/06/23 07:33:25;;;;;;;;;;;;;;;22.79;51.42;100490.41;7401293;19;1467;-58
2022/06/23 07:35:58;;;;;;;;;;;;;;;22.84;51.46;100485.38;7405282;19;1343;-62
2022/06/23 07:38:30;;;;;;;;;;;;;;;22.96;51.91;100477.78;7403783;19;1565;-58
2022/06/23 07:41:02;;;;;;;;;;;;;;;23.09;51.41;100477.31;7406055;19;1845;-63
2022/06/23 07:43:33;;;;;;;;;;;;;;;23.10;51.48;100470.91;7405744;19;1603;-64
2022/06/23 07:46:03;;;;;;;;;;;;;;;23.07;51.41;100456.91;7404138;19;1320;-58
2022/06/23 07:48:33;;;;;;;;;;;;;;;22.99;51.77;100437.00;7403946;19;1591;-63
2022/06/23 07:51:06;;;;;;;;;;;;;;;22.94;52.23;100420.50;7402303;19;1543;-59
2022/06/23 07:53:36;;;;;;;;;;;;;;;22.96;52.41;100426.56;7401761;19;1430;-55
2022/06/23 07:56:06;;;;;;;;;;;;;;;23.03;52.26;100416.78;7403475;19;1382;-61
2022/06/23 07:58:36;;;;;;;;;;;;;;;23.03;52.68;100414.09;7404813;19;1446;-64
2022/06/23 08:01:09;;;;;;;;;;;;;;;23.05;52.52;100407.69;7401279;19;1850;-55
2022/06/23 08:03:39;;;;;;;;;;;;;;;23.05;52.28;100405.00;7402922;19;1518;-60
2022/06/23 08:06:12;;;;;;;;;;;;;;;23.10;52.95;100414.28;7401821;19;1394;-56
2022/06/23 08:08:41;;;;;;;;;;;;;;;23.02;52.68;100409.72;7403312;19;1629;-62
2022/06/23 08:13:58;;;;;;;;;;;;;;;22.87;54.14;100389.81;7404316;19;1425;-61
2022/06/23 08:19:12;;;;;;;;;;;;;;;22.81;54.53;100402.13;7403990;19;1859;-56
2022/06/23 08:21:46;;;;;;;;;;;;;;;22.77;54.32;100387.31;7419285;19;1185;-56
2022/06/23 08:24:15;;;;;;;;;;;;;;;22.79;54.58;100392.53;7418647;19;1564;-56
2022/06/23 08:26:45;;;;;;;;;;;;;;;22.79;54.46;100381.75;7418501;19;1524;-62
2022/06/23 08:29:15;;;;;;;;;;;;;;;22.79;54.23;100423.00;7417731;19;1634;-62
2022/06/23 08:31:43;;;;;;;;;;;;;;;22.77;54.11;100421.50;7418864;19;1552;-62
2022/06/23 08:34:12;;;;;;;;;;;;;;;22.80;53.92;100442.72;7418144;19;1721;-62
2022/06/23 08:36:44;;;;;;;;;;;;;;;22.78;53.72;100440.22;7417745;19;1554;-60
2022/06/23 08:39:15;;;;;;;;;;;;;;;22.78;54.06;100444.75;7418783;19;1847;-56
2022/06/23 08:41:47;;;;;;;;;;;;;;;22.79;54.16;100455.38;7417955;19;1666;-62
2022/06/23 08:44:21;;;;;;;;;;;;;;;22.77;54.12;100464.66;7418461;19;1493;-55
2022/06/23 08:46:54;;;;;;;;;;;;;;;22.79;54.26;100484.19;7416281;19;1618;-62
2022/06/23 08:49:25;;;;;;;;;;;;;;;22.74;54.25;100482.00;7415222;19;1584;-56
2022/06/23 08:51:59;;;;;;;;;;;;;;;22.75;54.34;100472.06;7416488;19;1516;-56
2022/06/23 08:54:33;;;;;;;;;;;;;;;22.74;53.95;100483.84;7413376;19;1459;-55
2022/06/23 08:57:05;;;;;;;;;;;;;;;22.71;54.14;100482.31;7415415;19;1650;-56
2022/06/23 08:59:37;;;;;;;;;;;;;;;22.73;54.28;100479.47;7417034;19;1861;-62
2022/06/23 09:02:10;;;;;;;;;;;;;;;22.73;53.99;100487.56;7414902;19;1361;-56
2022/06/23 09:04:44;;;;;;;;;;;;;;;22.72;53.92;100467.84;7416891;19;1638;-62
2022/06/23 09:07:18;;;;;;;;;;;;;;;22.70;54.21;100480.66;7415060;19;1329;-55
2022/06/23 09:09:50;;;;;;;;;;;;;;;22.71;53.31;100486.88;7416603;19;1301;-55
2022/06/23 09:12:23;;;;;;;;;;;;;;;22.70;53.92;100485.19;7415971;19;1315;-62
2022/06/23 09:15:06;;;;;;;;;;;;;;;22.70;53.23;100482.47;7416736;19;1788;-56
2022/06/23 09:17:40;;;;;;;;;;;;;;;22.68;53.26;100492.59;7415396;19;1991;-62
2022/06/23 09:20:15;;;;;;;;;;;;;;;22.72;52.67;100493.94;7415284;19;1852;-56
2022/06/23 09:22:52;;;;;;;;;;;;;;;22.70;52.70;100491.44;7414768;19;1490;-56
2022/06/23 09:25:26;;;;;;;;;;;;;;;22.72;52.84;100493.94;7415761;19;1642;-62
2022/06/23 09:28:04;;;;;;;;;;;;;;;22.72;53.57;100484.03;7413071;19;1347;-61
2022/06/23 09:30:38;;;;;;;;;;;;;;;22.71;53.63;100494.97;7411393;19;1548;-56
2022/06/23 09:33:14;;;;;;;;;;;;;;;22.71;53.78;100476.94;7407982;19;1399;-56
2022/06/23 09:36:07;;;;;;;;;;;;;;;22.73;53.44;100477.59;7408743;19;1528;-62
2022/06/23 09:38:50;;;;;;;;;;;;;;;22.76;53.12;100471.03;7406775;19;1589;-56
2022/06/23 09:41:28;;;;;;;;;;;;;;;22.79;53.13;100468.00;7407466;19;1861;-62
2022/06/23 09:44:17;;;;;;;;;;;;;;;22.80;53.02;100477.78;7409733;19;1603;-56
2022/06/23 09:47:03;;;;;;;;;;;;;;;22.82;52.79;100483.88;7410119;19;1303;-56
2022/06/23 09:49:46;;;;;;;;;;;;;;;22.82;52.78;100508.13;7409113;19;1587;-62
2022/06/23 09:52:32;;;;;;;;;;;;;;;22.84;52.64;100495.31;7407787;19;1349;-62
2022/06/23 09:55:18;;;;;;;;;;;;;;;22.81;52.57;100477.59;7407518;19;1726;-62
2022/06/23 09:58:01;;;;;;;;;;;;;;;22.83;52.59;100486.38;7405595;19;1465;-62
2022/06/23 10:00:39;;;;;;;;;;;;;;;22.99;52.83;100485.53;7406721;19;2398;-61
2022/06/23 10:03:15;;;;;;;;;;;;;;;23.05;52.32;100494.00;7409131;19;1571;-56
2022/06/23 10:05:55;;;;;;;;;;;;;;;22.96;52.67;100485.88;7406175;19;1537;-62
2022/06/23 10:08:40;;;;;;;;;;;;;;;22.92;52.62;100495.31;7407370;19;1524;-56
2022/06/23 10:11:18;;;;;;;;;;;;;;;22.96;53.12;100498.50;7406633;19;1268;-56
2022/06/23 10:14:05;;;;;;;;;;;;;;;23.00;53.21;100492.63;7407208;19;1503;-62
2022/06/23 10:16:47;;;;;;;;;;;;;;;22.97;52.86;100492.13;7406090;19;2014;-56
2022/06/23 10:19:26;;;;;;;;;;;;;;;22.98;53.11;100500.03;7406829;19;1427;-62
2022/06/23 10:22:00;;;;;;;;;;;;;;;22.94;53.02;100492.44;7405571;19;1847;-56
2022/06/23 10:24:37;;;;;;;;;;;;;;;22.96;52.99;100499.38;7408420;19;1399;-56
2022/06/23 10:27:20;;;;;;;;;;;;;;;22.92;53.09;100487.22;7408257;19;1334;-56
2022/06/23 10:30:03;;;;;;;;;;;;;;;23.00;53.13;100505.28;7407582;19;1273;-56
2022/06/23 10:32:46;;;;;;;;;;;;;;;22.94;52.80;100493.31;7407969;19;1607;-56
2022/06/23 10:35:25;;;;;;;;;;;;;;;22.92;52.87;100489.94;7408068;19;1292;-62
2022/06/23 10:37:59;;;;;;;;;;;;;;;22.96;52.71;100490.41;7408360;19;1376;-55
2022/06/23 10:40:37;;;;;;;;;;;;;;;22.94;52.62;100487.91;7406728;19;1845;-63
2022/06/23 10:43:12;;;;;;;;;;;;;;;22.94;52.54;100487.03;7404891;19;1553;-62
2022/06/23 10:45:44;;;;;;;;;;;;;;;22.93;52.09;100490.75;7405609;19;1345;-56
2022/06/23 10:48:26;;;;;;;;;;;;;;;22.95;52.11;100478.78;7406037;19;1272;-53
2022/06/23 10:51:02;;;;;;;;;;;;;;;23.05;52.30;100494.00;7407091;19;1416;-56
2022/06/23 10:53:37;;;;;;;;;;;;;;;23.06;51.28;100484.88;7406696;19;1560;-58
2022/06/23 10:56:14;;;;;;;;;;;;;;;23.16;51.59;100496.38;7406988;19;1427;-57
2022/06/23 10:59:02;;;;;;;;;;;;;;;23.13;51.30;100494.00;7406503;19;1514;-63
2022/06/23 11:01:39;;;;;;;;;;;;;;;23.08;51.05;100466.69;7405505;19;1859;-57
2022/06/23 11:04:16;;;;;;;;;;;;;;;23.08;50.11;100496.34;7406654;19;1288;-56
2022/06/23 11:06:59;;;;;;;;;;;;;;;23.06;51.82;100484.88;7406625;19;1487;-62
2022/06/23 11:09:45;;;;;;;;;;;;;;;23.08;51.20;100472.06;7406164;19;1853;-62
2022/06/23 11:12:23;;;;;;;;;;;;;;;23.08;50.93;100475.63;7403678;19;1276;-57
2022/06/23 11:15:00;;;;;;;;;;;;;;;23.13;51.63;100477.81;7406045;19;1439;-57
2022/06/23 11:17:34;;;;;;;;;;;;;;;23.14;51.48;100468.69;7405814;19;1263;-62
2022/06/23 11:20:13;;;;;;;;;;;;;;;23.11;51.55;100469.06;7406393;19;1867;-57
2022/06/23 11:22:56;;;;;;;;;;;;;;;23.12;51.57;100463.50;7405062;19;1362;-57
2022/06/23 11:25:34;;;;;;;;;;;;;;;23.14;51.70;100471.38;7406983;19;1486;-62
2022/06/23 11:28:07;;;;;;;;;;;;;;;23.14;51.65;100466.00;7404401;19;1695;-61
2022/06/23 11:30:46;;;;;;;;;;;;;;;23.12;51.56;100474.28;7406061;19;1362;-63
2022/06/23 11:33:34;;;;;;;;;;;;;;;23.19;50.28;100474.44;7404776;19;1272;-55
2022/06/23 11:36:15;;;;;;;;;;;;;;;23.19;49.73;100486.06;7404519;19;1189;-62
2022/06/23 11:38:50;;;;;;;;;;;;;;;23.15;48.85;100479.31;7402684;19;1816;-61
2022/06/23 11:41:29;;;;;;;;;;;;;;;23.16;46.35;100474.78;7405675;19;1853;-61
2022/06/23 11:44:07;;;;;;;;;;;;;;;23.20;46.43;100487.75;7406337;19;1532;-68
2022/06/23 11:46:38;;;;;;;;;;;;;;;23.16;45.59;100464.00;7406699;19;1601;-63
2022/06/23 11:49:13;;;;;;;;;;;;;;;23.17;45.05;100487.25;7404863;19;1809;-64
2022/06/23 11:51:49;;;;;;;;;;;;;;;23.16;47.01;100485.59;7405526;19;1632;-60
2022/06/23 11:54:25;;;;;;;;;;;;;;;23.16;45.98;100494.50;7404329;19;1179;-64
2022/06/23 11:57:10;;;;;;;;;;;;;;;23.16;47.44;100483.72;7405800;19;1734;-62
2022/06/23 11:59:43;;;;;;;;;;;;;;;23.15;47.62;100489.28;7404083;19;1576;-65
2022/06/23 12:02:11;;;;;;;;;;;;;;;23.14;48.49;100483.03;7403607;19;1863;-62
2022/06/23 12:04:45;;;;;;;;;;;;;;;23.15;48.85;100456.91;7403131;19;1361;-56
2022/06/23 12:07:25;;;;;;;;;;;;;;;23.13;48.54;100472.41;7403303;19;1334;-61
2022/06/23 12:09:58;;;;;;;;;;;;;;;23.13;48.10;100469.72;7404647;19;1405;-56
2022/06/23 12:12:29;;;;;;;;;;;;;;;23.14;49.10;100474.09;7403948;19;1381;-62
2022/06/23 12:14:57;;;;;;;;;;;;;;;23.12;49.75;100478.81;7403201;19;1409;-56
2022/06/23 12:17:28;;;;;;;;;;;;;;;23.14;49.46;100487.56;7404121;19;1420;-56
2022/06/23 12:20:00;;;;;;;;;;;;;;;23.16;49.98;100474.78;7403646;19;1568;-64
2022/06/23 12:22:34;;;;;;;;;;;;;;;23.21;49.96;100485.91;7402177;19;1849;-56
2022/06/23 12:25:06;;;;;;;;;;;;;;;23.19;50.19;100474.44;7403923;19;1263;-63
2022/06/23 12:27:41;;;;;;;;;;;;;;;23.39;50.44;100475.75;7403139;19;1285;-61
2022/06/23 12:30:10;;;;;;;;;;;;;;;23.28;49.98;100478.81;7403810;19;1245;-59
2022/06/23 12:32:44;;;;;;;;;;;;;;;23.23;47.04;100464.97;7404710;19;1584;-55
2022/06/23 12:35:17;;;;;;;;;;;;;;;23.24;47.89;100477.47;7405230;19;1643;-56
2022/06/23 12:37:49;;;;;;;;;;;;;;;23.24;46.88;100477.47;7404132;19;1630;-58
2022/06/23 12:40:23;;;;;;;;;;;;;;;23.20;46.24;100476.13;7403997;19;1313;-58
2022/06/23 12:42:58;;;;;;;;;;;;;;;23.22;46.82;100480.34;7403631;19;1183;-58
2022/06/23 12:45:45;;;;;;;;;;;;;;;23.21;46.11;100475.94;7402536;19;1239;-57
2022/06/23 12:48:25;;;;;;;;;;;;;;;23.21;46.50;100467.84;7401745;19;1770;-59
2022/06/23 12:51:00;;;;;;;;;;;;;;;23.22;47.68;100471.41;7403573;19;1782;-57
2022/06/23 12:53:40;;;;;;;;;;;;;;;23.24;47.26;100461.28;7402539;19;1781;-57
2022/06/23 12:56:19;;;;;;;;;;;;;;;23.28;48.07;100462.63;7404325;19;1349;-55
2022/06/23 12:58:53;;;;;;;;;;;;;;;23.29;48.59;100458.91;7400619;19;1345;-61
2022/06/23 13:01:32;;;;;;;;;;;;;;;23.39;48.64;100448.75;7397501;19;1851;-60
2022/06/23 13:04:03;;;;;;;;;;;;;;;23.33;48.81;100459.41;7400688;19;1546;-62
2022/06/23 13:06:39;;;;;;;;;;;;;;;23.29;48.50;100453.50;7403261;19;1314;-63
2022/06/23 13:09:13;;;;;;;;;;;;;;;23.27;49.15;100455.53;7408532;19;1675;-58
2022/06/23 13:11:46;;;;;;;;;;;;;;;23.29;49.90;100458.91;7408094;19;1533;-60
2022/06/23 13:14:20;;;;;;;;;;;;;;;23.35;49.63;100485.19;7409974;19;1308;-57
2022/06/23 13:16:51;;;;;;;;;;;;;;;23.32;49.62;100463.97;7410889;19;1771;-66
2022/06/23 13:19:23;;;;;;;;;;;;;;;23.25;49.91;100454.88;7409555;19;1340;-54
2022/06/23 13:21:52;;;;;;;;;;;;;;;23.21;50.15;100454.34;7409570;19;1856;-63
2022/06/23 13:24:21;;;;;;;;;;;;;;;23.24;50.28;100453.19;7410762;19;1451;-57
2022/06/23 13:26:54;;;;;;;;;;;;;;;23.25;50.52;100457.56;7410952;19;1334;-53
2022/06/23 13:29:26;;;;;;;;;;;;;;;23.24;50.50;100442.41;7411963;19;1453;-57
2022/06/23 13:31:56;;;;;;;;;;;;;;;23.27;50.29;100449.31;7410952;19;1375;-59